Time;durP1;ratioP1;P1;durP2;ratioP2;P2;SDS_P1;SDS_P2;PMS_P1;PMS_P2;Temp;Humidity;BMP_temperature;BMP_pressure;BME280_temperature;BME280_humidity;BME280_pressure;Samples;Min_cycle;Max_cycle;Signal;HPM_P1;HPM_P2
2021/10/14 00:00:17;;;;;;;;;58.75;45.00;26.80;30.90;;;;;;842090;23;6107;-77
2021/10/14 00:00:39;;;;;;;;;56.20;44.40;26.80;30.90;;;;;;841643;23;6468;-80
2021/10/14 00:01:01;;;;;;;;;59.75;49.00;26.80;30.70;;;;;;841914;23;6616;-81
2021/10/14 00:01:22;;;;;;;;;59.60;48.00;26.80;29.80;;;;;;841873;23;6370;-81
2021/10/14 00:01:42;;;;;;;;;60.00;47.25;26.80;30.80;;;;;;841928;23;6425;-84
2021/10/14 00:02:03;;;;;;;;;54.60;46.00;;;;;;;;842079;23;6142;-78
2021/10/14 00:02:24;;;;;;;;;59.00;47.40;26.80;30.00;;;;;;841879;23;6149;-77
2021/10/14 00:02:45;;;;;;;;;59.60;50.00;26.80;30.80;;;;;;842079;23;6144;-85
2021/10/14 00:03:09;;;;;;;;;59.00;47.40;26.80;30.00;;;;;;841828;23;6148;-82
2021/10/14 00:03:30;;;;;;;;;57.50;46.00;26.80;30.00;;;;;;841627;23;6498;-82
2021/10/14 00:03:51;;;;;;;;;58.80;48.20;26.80;31.00;;;;;;842147;23;6545;-75
2021/10/14 00:04:14;;;;;;;;;59.00;48.00;26.80;31.00;;;;;;842125;23;6036;-85
2021/10/14 00:04:35;;;;;;;;;63.50;50.00;26.80;31.00;;;;;;842070;23;6380;-82
2021/10/14 00:04:56;;;;;;;;;60.25;48.00;26.70;30.10;;;;;;842285;23;6029;-83
2021/10/14 00:05:16;;;;;;;;;58.80;48.20;26.80;30.20;;;;;;842248;23;6169;-79
2021/10/14 00:05:37;;;;;;;;;59.20;48.40;26.80;30.10;;;;;;842145;23;6235;-87
2021/10/14 00:05:58;;;;;;;;;57.75;47.50;26.80;31.10;;;;;;842183;23;6113;-77
2021/10/14 00:06:19;;;;;;;;;57.00;46.00;26.70;30.10;;;;;;842369;23;6052;-76
2021/10/14 00:06:39;;;;;;;;;58.00;48.00;26.70;31.00;;;;;;842213;23;6052;-92
2021/10/14 00:07:00;;;;;;;;;59.75;47.75;26.70;30.10;;;;;;842169;23;6131;-89
2021/10/14 00:07:21;;;;;;;;;61.00;48.25;26.80;30.20;;;;;;842276;23;6151;-76
2021/10/14 00:07:42;;;;;;;;;58.00;47.33;26.80;31.30;;;;;;842290;23;6047;-77
2021/10/14 00:08:03;;;;;;;;;59.20;47.60;26.70;30.10;;;;;;842190;23;6546;-82
2021/10/14 00:08:24;;;;;;;;;58.20;47.00;26.70;30.20;;;;;;842107;23;6049;-77
2021/10/14 00:08:45;;;;;;;;;55.00;45.00;26.70;30.10;;;;;;842224;23;6144;-82
2021/10/14 00:09:06;;;;;;;;;55.50;45.75;26.70;31.30;;;;;;842101;23;6049;-80
2021/10/14 00:09:27;;;;;;;;;57.00;46.75;26.70;30.20;;;;;;842189;23;6166;-82
2021/10/14 00:09:47;;;;;;;;;56.00;45.50;26.70;30.10;;;;;;842225;23;6018;-78
2021/10/14 00:10:09;;;;;;;;;55.60;45.60;26.70;31.10;;;;;;841984;23;6467;-81
2021/10/14 00:10:30;;;;;;;;;57.40;47.00;26.70;31.10;;;;;;842187;23;6361;-83
2021/10/14 00:10:50;;;;;;;;;55.40;46.40;26.70;31.20;;;;;;842346;23;6122;-81
2021/10/14 00:11:11;;;;;;;;;60.25;47.25;26.70;30.20;;;;;;842322;23;6104;-84
2021/10/14 00:11:32;;;;;;;;;61.00;47.50;26.70;31.30;;;;;;842145;23;6052;-81
2021/10/14 00:11:53;;;;;;;;;60.25;47.00;26.70;30.20;;;;;;842233;23;6829;-83
2021/10/14 00:12:13;;;;;;;;;61.00;48.33;26.70;30.30;;;;;;842074;23;6757;-78
2021/10/14 00:12:34;;;;;;;;;56.50;47.00;26.70;31.20;;;;;;841866;23;6016;-81
2021/10/14 00:12:56;;;;;;;;;58.00;47.25;26.70;31.40;;;;;;842209;23;6013;-78
2021/10/14 00:13:17;;;;;;;;;57.60;47.00;26.60;30.10;;;;;;842103;23;6853;-80
2021/10/14 00:13:38;;;;;;;;;58.50;47.00;26.70;30.20;;;;;;842068;23;5345;-78
2021/10/14 00:13:58;;;;;;;;;54.80;45.80;26.70;31.30;;;;;;842233;23;6225;-76
2021/10/14 00:14:19;;;;;;;;;57.50;47.00;26.70;31.40;;;;;;842362;23;6053;-79
2021/10/14 00:14:40;;;;;;;;;55.80;46.20;26.70;31.30;;;;;;842279;23;6137;-78
2021/10/14 00:15:01;;;;;;;;;54.75;45.00;26.70;31.30;;;;;;842188;23;6052;-80
2021/10/14 00:15:22;;;;;;;;;54.00;45.00;26.70;31.20;;;;;;842056;23;6214;-76
2021/10/14 00:15:43;;;;;;;;;57.00;44.00;26.70;31.20;;;;;;842092;23;6773;-79
2021/10/14 00:16:04;;;;;;;;;58.75;48.00;26.70;31.50;;;;;;842154;23;6031;-80
2021/10/14 00:16:25;;;;;;;;;51.20;43.60;26.70;31.30;;;;;;842016;23;6255;-84
2021/10/14 00:16:46;;;;;;;;;57.50;47.00;26.70;31.40;;;;;;842367;23;6210;-79
2021/10/14 00:17:06;;;;;;;;;57.75;46.75;26.70;31.30;;;;;;842385;23;6097;-75
2021/10/14 00:17:27;;;;;;;;;54.00;44.40;26.70;31.40;;;;;;843042;23;6296;-73
2021/10/14 00:17:48;;;;;;;;;55.60;44.60;26.70;31.30;;;;;;843718;23;6113;-75
2021/10/14 00:18:09;;;;;;;;;57.00;45.40;26.70;31.20;;;;;;843966;23;6149;-74
2021/10/14 00:18:30;;;;;;;;;56.40;45.40;26.70;31.30;;;;;;842991;23;6170;-74
2021/10/14 00:18:50;;;;;;;;;55.60;46.60;26.70;31.30;;;;;;843863;23;6245;-75
2021/10/14 00:19:11;;;;;;;;;54.00;44.00;26.70;30.40;;;;;;843712;23;5981;-75
2021/10/14 00:19:32;;;;;;;;;54.67;45.67;26.70;31.30;;;;;;842620;23;6126;-74
2021/10/14 00:19:53;;;;;;;;;55.60;44.80;26.70;31.20;;;;;;842259;23;6786;-75
2021/10/14 00:20:14;;;;;;;;;55.60;44.00;26.70;31.20;;;;;;843072;23;6121;-74
2021/10/14 00:20:35;;;;;;;;;59.20;48.60;26.70;31.20;;;;;;842717;23;5998;-73
2021/10/14 00:20:56;;;;;;;;;55.50;46.25;26.70;31.30;;;;;;843562;23;6065;-73
2021/10/14 00:21:16;;;;;;;;;57.75;47.00;26.70;31.30;;;;;;843246;23;6068;-73
2021/10/14 00:21:37;;;;;;;;;54.25;45.75;26.70;30.40;;;;;;838652;23;6006;-75
2021/10/14 00:21:58;;;;;;;;;49.75;42.50;26.70;30.30;;;;;;838839;23;6018;-77
2021/10/14 00:22:19;;;;;;;;;50.60;43.60;26.70;31.40;;;;;;839214;23;6114;-72
2021/10/14 00:22:40;;;;;;;;;52.00;42.80;26.70;31.40;;;;;;838998;23;6093;-75
2021/10/14 00:23:00;;;;;;;;;54.20;45.20;26.70;31.30;;;;;;839272;23;6014;-73
2021/10/14 00:23:21;;;;;;;;;53.00;44.00;26.70;31.30;;;;;;839268;23;6082;-73
2021/10/14 00:23:42;;;;;;;;;57.00;47.75;26.70;31.30;;;;;;843054;23;6326;-72
2021/10/14 00:24:03;;;;;;;;;52.00;43.00;26.70;31.50;;;;;;843275;23;6122;-72
2021/10/14 00:24:24;;;;;;;;;51.00;44.00;26.70;31.50;;;;;;843229;23;6276;-74
2021/10/14 00:24:45;;;;;;;;;52.60;44.60;26.70;31.40;;;;;;843153;23;6158;-74
2021/10/14 00:25:06;;;;;;;;;56.25;45.50;26.70;31.30;;;;;;843248;23;6041;-74
2021/10/14 00:25:27;;;;;;;;;54.50;45.00;26.70;31.40;;;;;;843396;23;6875;-73
2021/10/14 00:25:47;;;;;;;;;53.80;44.60;26.70;31.30;;;;;;843430;23;6456;-75
2021/10/14 00:26:08;;;;;;;;;52.75;42.00;26.70;30.40;;;;;;843762;23;6014;-75
2021/10/14 00:26:29;;;;;;;;;54.00;45.40;26.70;31.40;;;;;;843235;23;6141;-76
2021/10/14 00:26:50;;;;;;;;;52.40;44.40;26.70;31.40;;;;;;843072;23;5992;-75
2021/10/14 00:27:11;;;;;;;;;54.40;45.20;26.70;31.30;;;;;;838752;23;6127;-77
2021/10/14 00:27:31;;;;;;;;;53.60;45.60;26.70;31.40;;;;;;839282;23;5971;-74
2021/10/14 00:27:53;;;;;;;;;50.00;43.00;26.70;31.40;;;;;;838967;23;6035;-74
2021/10/14 00:28:14;;;;;;;;;52.00;44.50;26.70;31.40;;;;;;838947;23;6026;-76
2021/10/14 00:28:34;;;;;;;;;49.60;43.00;26.60;30.40;;;;;;838495;23;6103;-76
2021/10/14 00:28:58;;;;;;;;;53.00;43.50;26.70;31.40;;;;;;839569;23;6045;-78
2021/10/14 00:29:18;;;;;;;;;56.00;44.40;27.30;31.80;;;;;;842913;23;6520;-74
2021/10/14 00:29:39;;;;;;;;;54.80;46.00;26.60;30.40;;;;;;842392;23;6133;-73
2021/10/14 00:30:03;;;;;;;;;53.00;44.00;26.70;31.50;;;;;;842648;23;6181;-75
2021/10/14 00:30:24;;;;;;;;;57.00;46.20;26.70;31.40;;;;;;842496;23;6327;-77
2021/10/14 00:30:45;;;;;;;;;53.60;42.40;26.70;31.40;;;;;;842823;23;6202;-75
2021/10/14 00:31:06;;;;;;;;;55.25;44.25;26.70;30.50;;;;;;843028;23;6080;-75
2021/10/14 00:31:26;;;;;;;;;52.00;42.00;26.70;31.40;;;;;;842972;23;5999;-74
2021/10/14 00:31:47;;;;;;;;;52.40;42.60;26.70;31.30;;;;;;843087;23;5982;-77
2021/10/14 00:32:08;;;;;;;;;49.50;41.75;26.70;30.40;;;;;;842970;23;6027;-75
2021/10/14 00:32:28;;;;;;;;;60.00;48.00;26.70;30.40;;;;;;841664;23;6308;-79
2021/10/14 00:32:49;;;;;;;;;53.50;45.00;26.70;30.50;;;;;;841953;23;6182;-75
2021/10/14 00:33:10;;;;;;;;;55.20;45.80;26.70;30.40;;;;;;841884;23;6697;-79
2021/10/14 00:33:31;;;;;;;;;53.00;43.00;26.70;31.40;;;;;;842097;23;7194;-79
2021/10/14 00:33:54;;;;;;;;;53.50;44.75;26.70;30.50;;;;;;842114;23;6741;-75
2021/10/14 00:34:15;;;;;;;;;50.60;42.60;26.70;31.40;;;;;;842355;23;6413;-80
2021/10/14 00:34:35;;;;;;;;;50.25;41.50;26.70;31.30;;;;;;842071;23;6143;-75
2021/10/14 00:34:56;;;;;;;;;56.50;47.00;26.70;30.40;;;;;;841997;23;7159;-78
2021/10/14 00:35:17;;;;;;;;;51.50;44.00;26.70;30.30;;;;;;842236;23;6123;-80
2021/10/14 00:35:38;;;;;;;;;56.33;44.00;26.70;31.40;;;;;;842024;23;6013;-79
2021/10/14 00:35:58;;;;;;;;;48.75;42.00;26.70;31.30;;;;;;837670;23;5666;-77
2021/10/14 00:36:20;;;;;;;;;48.00;40.40;26.70;31.30;;;;;;837892;23;6088;-75
2021/10/14 00:36:41;;;;;;;;;52.50;43.00;26.70;31.40;;;;;;837791;23;6576;-78
2021/10/14 00:37:02;;;;;;;;;47.50;39.75;26.60;30.30;;;;;;838081;23;5904;-78
2021/10/14 00:37:23;;;;;;;;;48.00;41.33;26.70;30.40;;;;;;837939;23;5947;-79
2021/10/14 00:37:44;;;;;;;;;48.80;42.60;26.70;31.50;;;;;;838874;23;6344;-80
2021/10/14 00:38:05;;;;;;;;;52.40;44.00;26.70;30.40;;;;;;842192;23;6120;-79
2021/10/14 00:38:25;;;;;;;;;50.60;43.00;26.60;30.40;;;;;;842121;23;6681;-81
2021/10/14 00:38:46;;;;;;;;;53.80;43.80;26.70;31.40;;;;;;842061;23;6326;-79
2021/10/14 00:39:07;;;;;;;;;52.00;42.00;26.70;31.30;;;;;;842002;23;6840;-79
2021/10/14 00:39:28;;;;;;;;;54.50;44.00;26.70;30.40;;;;;;842201;23;5487;-81
2021/10/14 00:39:48;;;;;;;;;50.80;40.40;26.70;31.40;;;;;;842702;23;6232;-79
2021/10/14 00:40:10;;;;;;;;;51.00;42.00;26.70;31.30;;;;;;842441;23;6225;-82
2021/10/14 00:40:32;;;;;;;;;50.00;42.00;26.70;30.40;;;;;;842218;23;6217;-80
2021/10/14 00:40:53;;;;;;;;;48.00;41.00;26.60;31.30;;;;;;842037;23;6945;-78
2021/10/14 00:41:15;;;;;;;;;48.40;41.00;26.70;31.40;;;;;;842181;23;6158;-81
2021/10/14 00:41:36;;;;;;;;;53.00;43.00;26.70;30.50;;;;;;842001;23;6530;-76
2021/10/14 00:41:57;;;;;;;;;54.20;44.20;26.60;30.40;;;;;;841887;23;6880;-80
2021/10/14 00:42:17;;;;;;;;;49.00;41.50;26.70;31.40;;;;;;842266;23;6166;-81
2021/10/14 00:42:38;;;;;;;;;53.80;43.00;26.70;31.40;;;;;;841921;23;6327;-83
2021/10/14 00:42:59;;;;;;;;;53.80;43.00;26.70;30.50;;;;;;842173;23;6138;-82
2021/10/14 00:43:20;;;;;;;;;48.50;40.50;26.70;31.40;;;;;;842150;23;6127;-84
2021/10/14 00:43:41;;;;;;;;;49.40;41.40;26.60;30.40;;;;;;842219;23;6142;-81
2021/10/14 00:44:01;;;;;;;;;49.60;42.60;26.60;30.50;;;;;;842155;23;6120;-84
2021/10/14 00:44:22;;;;;;;;;48.20;40.40;26.60;31.40;;;;;;842034;23;6164;-83
2021/10/14 00:44:48;;;;;;;;;46.20;39.40;26.60;30.50;;;;;;842415;23;6229;-84
2021/10/14 00:45:09;;;;;;;;;51.75;42.50;26.70;30.50;;;;;;841883;23;6492;-81
2021/10/14 00:45:30;;;;;;;;;46.00;40.60;26.60;30.40;;;;;;842044;23;6142;-76
2021/10/14 00:45:51;;;;;;;;;53.75;43.75;26.60;30.40;;;;;;842058;23;6049;-81
2021/10/14 00:46:18;;;;;;;;;48.50;40.50;26.60;31.40;;;;;;837921;23;6628;-83
2021/10/14 00:46:52;;;;;;;;;51.50;43.25;26.70;30.50;;;;;;837765;23;6828;-82
2021/10/14 00:47:20;;;;;;;;;49.00;41.00;26.60;31.40;;;;;;837872;23;6413;-83
2021/10/14 00:47:41;;;;;;;;;47.00;38.25;26.60;31.40;;;;;;838000;23;7737;-83
2021/10/14 00:48:02;;;;;;;;;50.20;42.00;26.60;30.50;;;;;;839526;23;6131;-81
2021/10/14 00:48:23;;;;;;;;;46.80;38.00;26.60;30.40;;;;;;842055;23;7045;-82
2021/10/14 00:48:44;;;;;;;;;49.00;38.00;26.60;31.40;;;;;;842224;23;6081;-82
2021/10/14 00:49:05;;;;;;;;;47.00;38.40;26.60;30.40;;;;;;841947;23;6739;-79
2021/10/14 00:49:25;;;;;;;;;51.00;42.00;26.60;30.40;;;;;;842048;23;6054;-84
2021/10/14 00:49:47;;;;;;;;;45.00;39.00;26.70;30.50;;;;;;842164;23;6237;-83
2021/10/14 00:50:09;;;;;;;;;50.20;42.00;26.60;30.40;;;;;;842013;23;6111;-81
2021/10/14 00:50:30;;;;;;;;;50.25;42.25;26.60;33.60;;;;;;841969;23;6543;-82
2021/10/14 00:50:50;;;;;;;;;54.00;42.25;26.30;31.40;;;;;;841472;23;6890;-82
2021/10/14 00:51:11;;;;;;;;;53.50;44.50;26.60;33.00;;;;;;842167;23;6425;-82
2021/10/14 00:51:32;;;;;;;;;46.00;39.00;26.60;30.40;;;;;;841960;23;6433;-79
2021/10/14 00:51:53;;;;;;;;;47.00;39.50;;;;;;;;842197;23;6062;-78
2021/10/14 00:52:15;;;;;;;;;51.50;42.75;26.40;30.40;;;;;;841957;23;6122;-80
2021/10/14 00:52:39;;;;;;;;;47.60;37.80;26.70;35.30;;;;;;841866;23;6305;-75
2021/10/14 00:53:00;;;;;;;;;48.20;41.60;26.60;31.80;;;;;;841930;23;6587;-78
2021/10/14 00:53:21;;;;;;;;;46.60;39.00;;;;;;;;842083;23;6136;-78
2021/10/14 00:53:43;;;;;;;;;46.00;39.00;;;;;;;;841818;23;5626;-79
2021/10/14 00:54:04;;;;;;;;;50.50;42.25;;;;;;;;841819;23;6333;-77
2021/10/14 00:54:25;;;;;;;;;48.00;39.40;27.50;32.10;;;;;;842070;23;5890;-84
2021/10/14 00:54:46;;;;;;;;;54.00;43.00;27.10;35.80;;;;;;842150;23;6043;-80
2021/10/14 00:55:10;;;;;;;;;50.40;42.00;26.30;32.40;;;;;;841669;23;6546;-81
2021/10/14 00:55:31;;;;;;;;;49.00;39.20;25.30;30.00;;;;;;841703;23;6709;-82
2021/10/14 00:55:52;;;;;;;;;49.33;42.00;;;;;;;;842169;23;6041;-82
2021/10/14 00:56:16;;;;;;;;;44.20;39.00;25.50;30.50;;;;;;842081;23;6784;-83
2021/10/14 00:56:36;;;;;;;;;43.00;38.00;26.40;32.10;;;;;;841940;23;6828;-82
2021/10/14 00:56:57;;;;;;;;;43.00;37.25;26.60;30.50;;;;;;842083;23;6132;-81
2021/10/14 00:57:19;;;;;;;;;47.75;38.75;26.60;30.50;;;;;;842169;23;6309;-78
2021/10/14 00:57:40;;;;;;;;;48.00;39.50;26.80;32.60;;;;;;841982;23;6932;-82
2021/10/14 00:58:02;;;;;;;;;46.75;39.25;26.60;30.50;;;;;;841929;23;6365;-76
2021/10/14 00:58:22;;;;;;;;;45.60;38.60;27.20;32.00;;;;;;842127;23;6751;-79
2021/10/14 00:58:44;;;;;;;;;51.60;41.80;26.10;30.80;;;;;;842089;23;6213;-81
2021/10/14 00:59:05;;;;;;;;;47.00;40.00;26.60;32.50;;;;;;842063;23;6543;-82
2021/10/14 00:59:28;;;;;;;;;46.50;39.75;28.50;32.70;;;;;;841957;23;6760;-79
2021/10/14 00:59:50;;;;;;;;;49.75;41.50;26.60;32.30;;;;;;842306;23;6653;-78
2021/10/14 01:00:11;;;;;;;;;46.00;37.80;;;;;;;;841792;23;6535;-82
2021/10/14 01:00:32;;;;;;;;;49.00;39.00;;;;;;;;842138;23;6097;-80
2021/10/14 01:00:53;;;;;;;;;46.50;36.50;;;;;;;;842022;23;6739;-77
2021/10/14 01:01:14;;;;;;;;;47.00;39.50;26.70;30.90;;;;;;842148;23;6502;-81
2021/10/14 01:01:36;;;;;;;;;46.50;39.00;26.60;30.50;;;;;;841933;23;6150;-81
2021/10/14 01:01:57;;;;;;;;;51.25;41.50;25.40;30.20;;;;;;842007;23;6519;-80
2021/10/14 01:02:17;;;;;;;;;50.25;42.25;26.60;30.50;;;;;;842326;23;6338;-78
2021/10/14 01:02:38;;;;;;;;;43.00;37.60;25.60;30.10;;;;;;841955;23;6168;-78
2021/10/14 01:02:59;;;;;;;;;42.00;37.00;;;;;;;;842101;23;6141;-78
2021/10/14 01:03:20;;;;;;;;;49.00;40.00;26.60;31.30;;;;;;842114;23;6219;-80
2021/10/14 01:03:40;;;;;;;;;45.00;37.00;25.90;30.80;;;;;;842127;23;6130;-82
2021/10/14 01:04:01;;;;;;;;;50.20;41.00;;;;;;;;842192;23;6139;-80
2021/10/14 01:04:22;;;;;;;;;45.00;37.00;26.60;31.00;;;;;;842229;23;6035;-81
2021/10/14 01:04:43;;;;;;;;;41.40;37.00;26.60;30.50;;;;;;842027;23;6723;-82
2021/10/14 01:05:05;;;;;;;;;48.75;40.50;26.60;31.20;;;;;;842159;23;6684;-77
2021/10/14 01:05:26;;;;;;;;;46.60;38.20;26.60;30.50;;;;;;841875;23;7604;-80
2021/10/14 01:05:47;;;;;;;;;45.20;37.80;26.50;30.50;;;;;;841984;23;6115;-77
2021/10/14 01:06:08;;;;;;;;;46.25;40.00;26.60;30.50;;;;;;841871;23;6833;-76
2021/10/14 01:06:29;;;;;;;;;44.00;36.75;;;;;;;;842120;23;6809;-81
2021/10/14 01:06:50;;;;;;;;;45.25;38.75;;;;;;;;842137;23;5637;-81
2021/10/14 01:07:10;;;;;;;;;44.60;37.60;26.60;30.50;;;;;;842016;23;6771;-82
2021/10/14 01:07:31;;;;;;;;;41.80;36.40;26.60;31.50;;;;;;842065;23;6169;-82
2021/10/14 01:07:52;;;;;;;;;49.25;40.50;26.50;30.50;;;;;;842213;23;6019;-83
2021/10/14 01:08:12;;;;;;;;;42.20;37.60;26.50;30.50;;;;;;842090;23;6733;-80
2021/10/14 01:08:35;;;;;;;;;49.00;40.75;26.60;31.30;;;;;;842096;23;6048;-78
2021/10/14 01:08:55;;;;;;;;;48.25;40.00;26.50;31.30;;;;;;842165;23;6718;-77
2021/10/14 01:09:16;;;;;;;;;45.50;39.00;26.50;31.50;;;;;;841937;23;6332;-76
2021/10/14 01:09:39;;;;;;;;;41.00;37.00;26.60;30.60;;;;;;842015;23;6109;-77
2021/10/14 01:10:00;;;;;;;;;40.00;36.20;;;;;;;;841865;23;6569;-80
2021/10/14 01:10:21;;;;;;;;;50.00;42.00;26.60;31.50;;;;;;842261;23;6111;-77
2021/10/14 01:10:41;;;;;;;;;49.40;40.60;26.60;31.50;;;;;;842024;23;6804;-75
2021/10/14 01:11:02;;;;;;;;;48.00;38.00;26.70;30.80;;;;;;842173;23;6758;-79
2021/10/14 01:11:24;;;;;;;;;40.00;36.33;26.60;31.30;;;;;;841845;23;6367;-79
2021/10/14 01:11:45;;;;;;;;;46.50;39.00;26.60;30.80;;;;;;842516;23;5856;-80
2021/10/14 01:12:07;;;;;;;;;48.40;40.40;26.60;31.40;;;;;;842103;23;6258;-78
2021/10/14 01:12:29;;;;;;;;;47.00;39.00;26.60;30.60;;;;;;841543;23;6906;-77
2021/10/14 01:12:51;;;;;;;;;43.25;36.00;;;;;;;;841982;23;6533;-77
2021/10/14 01:13:12;;;;;;;;;43.60;38.00;26.40;30.80;;;;;;842233;23;6580;-75
2021/10/14 01:13:33;;;;;;;;;40.00;36.40;26.60;31.60;;;;;;841899;23;7576;-76
2021/10/14 01:13:54;;;;;;;;;37.00;35.00;;;;;;;;841995;23;6756;-77
2021/10/14 01:14:15;;;;;;;;;46.20;39.40;26.50;30.60;;;;;;842476;23;6590;-77
2021/10/14 01:14:35;;;;;;;;;43.00;38.00;26.50;30.60;;;;;;841902;23;6170;-80
2021/10/14 01:14:56;;;;;;;;;40.25;37.00;26.70;31.30;;;;;;841936;23;5213;-80
2021/10/14 01:15:25;;;;;;;;;41.50;37.50;26.60;31.10;;;;;;842095;23;6061;-76
2021/10/14 01:15:46;;;;;;;;;52.25;40.75;26.20;30.70;;;;;;841998;23;6625;-81
2021/10/14 01:16:07;;;;;;;;;40.80;36.00;26.60;30.80;;;;;;841948;23;6248;-82
2021/10/14 01:16:28;;;;;;;;;44.50;38.00;26.50;31.60;;;;;;841988;23;6127;-77
2021/10/14 01:16:48;;;;;;;;;44.50;37.50;25.60;30.70;;;;;;842066;23;6352;-77
2021/10/14 01:17:09;;;;;;;;;36.75;35.00;26.70;31.20;;;;;;842238;23;5378;-78
2021/10/14 01:17:30;;;;;;;;;46.00;38.20;26.50;32.20;;;;;;842107;23;6255;-77
2021/10/14 01:17:51;;;;;;;;;46.00;37.50;26.60;31.80;;;;;;837329;23;6111;-77
2021/10/14 01:18:13;;;;;;;;;44.00;36.00;26.60;30.80;;;;;;838006;23;5904;-81
2021/10/14 01:18:33;;;;;;;;;44.50;37.50;26.60;31.80;;;;;;837866;23;6589;-81
2021/10/14 01:18:54;;;;;;;;;37.75;35.00;26.60;30.70;;;;;;837811;23;6217;-80
2021/10/14 01:19:15;;;;;;;;;40.00;35.00;26.60;30.70;;;;;;838002;23;6150;-80
2021/10/14 01:19:40;;;;;;;;;37.00;34.00;26.60;30.80;;;;;;838847;23;6076;-76
2021/10/14 01:20:01;;;;;;;;;40.75;34.50;26.60;31.60;;;;;;841858;23;6377;-79
2021/10/14 01:20:23;;;;;;;;;43.00;38.00;;;;;;;;842070;23;7366;-82
2021/10/14 01:20:44;;;;;;;;;41.00;36.00;;;;;;;;841414;23;7940;-78
2021/10/14 01:21:05;;;;;;;;;50.00;40.20;26.50;31.60;;;;;;841894;23;6062;-79
2021/10/14 01:21:26;;;;;;;;;42.50;36.50;;;;;;;;841960;23;5910;-82
2021/10/14 01:21:49;;;;;;;;;47.20;38.00;26.50;31.50;;;;;;841952;23;6060;-76
2021/10/14 01:22:10;;;;;;;;;46.40;39.00;26.20;30.90;;;;;;841807;23;6408;-78
2021/10/14 01:22:31;;;;;;;;;40.50;35.50;26.10;30.70;;;;;;841898;23;6536;-78
2021/10/14 01:22:53;;;;;;;;;41.00;36.40;26.50;30.80;;;;;;841884;23;6219;-76
2021/10/14 01:23:14;;;;;;;;;39.60;36.80;;;;;;;;842175;23;6224;-76
2021/10/14 01:23:35;;;;;;;;;37.60;34.60;26.50;30.60;;;;;;842048;23;6159;-76
2021/10/14 01:23:56;;;;;;;;;42.25;34.75;26.10;30.70;;;;;;841959;23;6077;-79
2021/10/14 01:24:18;;;;;;;;;46.50;38.00;26.50;31.00;;;;;;842323;23;6058;-77
2021/10/14 01:24:38;;;;;;;;;47.20;39.00;26.00;30.70;;;;;;841998;23;6482;-76
2021/10/14 01:24:59;;;;;;;;;40.00;35.60;26.50;30.60;;;;;;841930;23;6917;-77
2021/10/14 01:25:20;;;;;;;;;45.50;38.00;26.50;31.70;;;;;;842109;23;6155;-80
2021/10/14 01:25:45;;;;;;;;;46.20;37.60;26.50;31.40;;;;;;841894;23;6333;-76
2021/10/14 01:26:05;;;;;;;;;46.00;39.50;27.30;31.50;;;;;;842022;23;6546;-77
2021/10/14 01:26:27;;;;;;;;;43.00;38.00;26.70;30.90;;;;;;842025;23;6102;-82
2021/10/14 01:26:48;;;;;;;;;40.00;36.00;26.50;31.60;;;;;;842026;23;6921;-76
2021/10/14 01:27:09;;;;;;;;;38.50;35.00;26.50;31.60;;;;;;841973;23;6262;-76
2021/10/14 01:27:30;;;;;;;;;46.40;38.00;;;;;;;;841782;23;6550;-76
2021/10/14 01:27:51;;;;;;;;;40.50;36.75;;;;;;;;842260;23;6751;-79
2021/10/14 01:28:12;;;;;;;;;40.00;36.40;;;;;;;;842096;23;6257;-83
2021/10/14 01:28:33;;;;;;;;;38.40;34.40;26.50;30.70;;;;;;841080;23;6291;-79
2021/10/14 01:28:54;;;;;;;;;37.00;34.00;;;;;;;;842148;23;6020;-77
2021/10/14 01:29:15;;;;;;;;;38.00;34.80;26.50;30.70;;;;;;842192;23;6136;-82
2021/10/14 01:29:36;;;;;;;;;46.20;39.40;26.50;30.60;;;;;;842152;23;6145;-78
2021/10/14 01:29:56;;;;;;;;;42.50;37.00;26.60;30.90;;;;;;842160;23;6047;-79
2021/10/14 01:30:17;;;;;;;;;38.40;35.00;26.50;31.70;;;;;;842101;23;6194;-78
2021/10/14 01:30:38;;;;;;;;;40.75;37.00;26.60;31.50;;;;;;842270;23;6763;-77
2021/10/14 01:30:59;;;;;;;;;40.00;36.00;26.50;30.70;;;;;;842039;23;6432;-78
2021/10/14 01:31:26;;;;;;;;;44.00;38.00;26.50;30.60;;;;;;842039;23;6082;-81
2021/10/14 01:31:48;;;;;;;;;39.00;35.00;26.50;31.00;;;;;;842081;23;6378;-78
2021/10/14 01:32:08;;;;;;;;;42.00;36.50;26.50;30.90;;;;;;842185;23;6393;-77
2021/10/14 01:32:29;;;;;;;;;39.00;36.00;26.50;30.60;;;;;;842050;23;6394;-76
2021/10/14 01:32:50;;;;;;;;;38.50;35.00;;;;;;;;842094;23;6523;-77
2021/10/14 01:33:12;;;;;;;;;41.40;36.40;26.50;30.80;;;;;;842209;23;6170;-76
2021/10/14 01:33:32;;;;;;;;;36.20;35.00;26.50;30.60;;;;;;841918;23;6581;-78
2021/10/14 01:33:55;;;;;;;;;43.00;36.67;26.50;30.80;;;;;;841768;23;5382;-78
2021/10/14 01:34:16;;;;;;;;;39.00;35.00;;;;;;;;841759;23;6955;-81
2021/10/14 01:34:36;;;;;;;;;39.00;34.25;26.50;30.70;;;;;;841769;23;5899;-80
2021/10/14 01:34:57;;;;;;;;;38.75;35.50;26.50;31.10;;;;;;841552;23;5895;-79
2021/10/14 01:35:18;;;;;;;;;36.80;34.80;26.50;30.60;;;;;;841735;23;6072;-81
2021/10/14 01:35:39;;;;;;;;;37.60;35.00;26.60;30.90;;;;;;841876;23;5974;-79
2021/10/14 01:36:00;;;;;;;;;33.00;31.80;26.60;32.00;;;;;;841564;23;6313;-82
2021/10/14 01:36:20;;;;;;;;;39.00;36.00;26.50;30.70;;;;;;842067;23;6245;-76
2021/10/14 01:36:41;;;;;;;;;38.00;35.00;26.50;30.70;;;;;;841857;23;6157;-82
2021/10/14 01:37:02;;;;;;;;;36.00;35.00;26.60;30.70;;;;;;842009;23;6306;-83
2021/10/14 01:37:23;;;;;;;;;30.60;30.60;26.40;30.60;;;;;;842018;23;6689;-79
2021/10/14 01:37:44;;;;;;;;;41.75;36.00;26.60;30.80;;;;;;842085;23;6204;-83
2021/10/14 01:38:05;;;;;;;;;44.25;37.50;26.50;30.70;;;;;;842097;23;6051;-82
2021/10/14 01:38:25;;;;;;;;;39.00;35.50;26.60;30.90;;;;;;841877;23;6341;-79
2021/10/14 01:38:46;;;;;;;;;39.20;33.60;26.60;31.20;;;;;;841997;23;6226;-82
2021/10/14 01:39:07;;;;;;;;;37.40;34.40;26.70;30.90;;;;;;841762;23;6146;-78
2021/10/14 01:39:28;;;;;;;;;34.25;32.75;26.70;30.80;;;;;;841875;23;5605;-80
2021/10/14 01:39:48;;;;;;;;;35.50;31.50;26.60;30.70;;;;;;841868;23;6188;-78
2021/10/14 01:40:10;;;;;;;;;33.50;31.50;26.50;30.70;;;;;;841798;23;6026;-80
2021/10/14 01:40:30;;;;;;;;;44.25;39.25;26.60;30.70;;;;;;842015;23;6530;-82
2021/10/14 01:40:51;;;;;;;;;38.00;34.50;26.70;31.30;;;;;;841985;23;6227;-82
2021/10/14 01:41:12;;;;;;;;;37.20;34.60;26.40;31.50;;;;;;842147;23;6157;-81
2021/10/14 01:41:33;;;;;;;;;43.00;38.00;26.50;30.60;;;;;;841893;23;6144;-80
2021/10/14 01:41:54;;;;;;;;;41.25;36.00;;;;;;;;841865;23;6229;-79
2021/10/14 01:42:15;;;;;;;;;39.80;36.00;26.50;30.70;;;;;;842027;23;6506;-79
2021/10/14 01:42:36;;;;;;;;;36.75;33.00;26.50;30.80;;;;;;841748;23;6248;-82
2021/10/14 01:42:56;;;;;;;;;35.00;32.00;26.60;30.90;;;;;;841722;23;7097;-82
2021/10/14 01:43:17;;;;;;;;;38.50;35.25;26.60;31.10;;;;;;842020;23;6120;-82
2021/10/14 01:43:38;;;;;;;;;36.50;33.00;;;;;;;;841759;23;6104;-82
2021/10/14 01:43:59;;;;;;;;;37.60;31.00;26.70;30.90;;;;;;841941;23;6272;-82
2021/10/14 01:44:19;;;;;;;;;35.00;33.60;26.50;31.00;;;;;;842162;23;6675;-80
2021/10/14 01:44:41;;;;;;;;;41.00;37.00;26.60;30.80;;;;;;841885;23;6280;-79
2021/10/14 01:45:03;;;;;;;;;37.40;35.00;26.10;30.60;;;;;;842014;23;6531;-81
2021/10/14 01:45:24;;;;;;;;;41.50;37.25;;;;;;;;841694;23;6724;-82
2021/10/14 01:45:45;;;;;;;;;41.00;36.50;26.60;30.90;;;;;;841973;23;6213;-79
2021/10/14 01:46:06;;;;;;;;;38.40;33.20;26.50;30.70;;;;;;841927;23;6823;-79
2021/10/14 01:46:27;;;;;;;;;41.75;36.50;;;;;;;;842017;23;5428;-75
2021/10/14 01:46:48;;;;;;;;;37.20;35.00;26.50;30.80;;;;;;842230;23;6237;-81
2021/10/14 01:47:08;;;;;;;;;34.60;32.00;26.60;31.10;;;;;;841972;23;7071;-80
2021/10/14 01:47:30;;;;;;;;;37.40;32.40;26.60;30.90;;;;;;841965;23;6185;-80
2021/10/14 01:47:51;;;;;;;;;40.80;33.40;26.50;30.80;;;;;;842273;23;6121;-80
2021/10/14 01:48:11;;;;;;;;;36.80;33.20;26.50;30.80;;;;;;841980;23;7673;-79
2021/10/14 01:48:32;;;;;;;;;45.50;38.25;26.70;31.40;;;;;;842091;23;6798;-83
2021/10/14 01:48:53;;;;;;;;;41.20;35.40;26.40;30.90;;;;;;841998;23;6213;-79
2021/10/14 01:49:13;;;;;;;;;39.00;35.00;26.50;30.80;;;;;;842123;23;6096;-77
2021/10/14 01:49:34;;;;;;;;;40.20;36.00;27.20;31.50;;;;;;842076;23;6162;-82
2021/10/14 01:49:55;;;;;;;;;41.75;35.00;26.50;30.80;;;;;;842074;23;6129;-83
2021/10/14 01:50:15;;;;;;;;;36.25;34.75;26.60;31.00;;;;;;842275;23;6026;-81
2021/10/14 01:50:36;;;;;;;;;36.00;34.50;26.50;30.90;;;;;;841201;23;6219;-81
2021/10/14 01:50:58;;;;;;;;;35.00;33.50;26.60;31.20;;;;;;841628;23;6390;-82
2021/10/14 01:51:19;;;;;;;;;36.80;35.00;26.50;31.30;;;;;;841938;23;6707;-80
2021/10/14 01:51:40;;;;;;;;;38.00;34.00;26.60;30.90;;;;;;841974;23;6139;-78